sensor_id;sensor_type;location;lat;lon;timestamp;P1;durP1;ratioP1;P2;durP2;ratioP2
35522;SDS011;61478;50.820;4.330;2023-04-25T00:01:23;22.35;;;6.40;;
35522;SDS011;61478;50.820;4.330;2023-04-25T00:03:49;23.85;;;6.70;;
35522;SDS011;61478;50.820;4.330;2023-04-25T00:06:15;19.48;;;5.95;;
35522;SDS011;61478;50.820;4.330;2023-04-25T00:08:43;22.67;;;6.47;;
35522;SDS011;61478;50.820;4.330;2023-04-25T00:11:09;30.75;;;7.00;;
35522;SDS011;61478;50.820;4.330;2023-04-25T00:13:35;22.27;;;5.85;;
35522;SDS011;61478;50.820;4.330;2023-04-25T00:16:02;22.15;;;6.18;;
35522;SDS011;61478;50.820;4.330;2023-04-25T00:18:29;30.33;;;6.25;;
35522;SDS011;61478;50.820;4.330;2023-04-25T00:20:58;17.48;;;5.57;;
35522;SDS011;61478;50.820;4.330;2023-04-25T00:23:25;20.45;;;5.53;;
35522;SDS011;61478;50.820;4.330;2023-04-25T00:25:51;26.40;;;6.45;;
35522;SDS011;61478;50.820;4.330;2023-04-25T00:28:17;21.60;;;6.45;;
35522;SDS011;61478;50.820;4.330;2023-04-25T00:30:43;27.20;;;6.57;;
35522;SDS011;61478;50.820;4.330;2023-04-25T00:33:09;23.13;;;5.90;;
35522;SDS011;61478;50.820;4.330;2023-04-25T00:35:35;17.40;;;5.63;;
35522;SDS011;61478;50.820;4.330;2023-04-25T00:38:02;22.33;;;6.22;;
35522;SDS011;61478;50.820;4.330;2023-04-25T00:40:28;21.15;;;5.93;;
35522;SDS011;61478;50.820;4.330;2023-04-25T00:42:54;29.15;;;6.53;;
35522;SDS011;61478;50.820;4.330;2023-04-25T00:45:20;29.73;;;7.03;;
35522;SDS011;61478;50.820;4.330;2023-04-25T00:47:58;23.77;;;6.60;;
35522;SDS011;61478;50.820;4.330;2023-04-25T00:50:24;23.55;;;6.05;;
35522;SDS011;61478;50.820;4.330;2023-04-25T00:52:50;25.27;;;6.68;;
35522;SDS011;61478;50.820;4.330;2023-04-25T00:55:17;21.45;;;7.07;;
35522;SDS011;61478;50.820;4.330;2023-04-25T00:57:43;26.30;;;7.47;;
35522;SDS011;61478;50.820;4.330;2023-04-25T01:00:10;26.85;;;7.38;;
35522;SDS011;61478;50.820;4.330;2023-04-25T01:02:41;30.48;;;7.00;;
35522;SDS011;61478;50.820;4.330;2023-04-25T01:05:10;24.02;;;6.97;;
35522;SDS011;61478;50.820;4.330;2023-04-25T01:07:39;25.15;;;6.00;;
35522;SDS011;61478;50.820;4.330;2023-04-25T01:10:05;24.75;;;6.80;;
35522;SDS011;61478;50.820;4.330;2023-04-25T01:12:33;20.58;;;6.72;;
35522;SDS011;61478;50.820;4.330;2023-04-25T01:15:00;28.80;;;6.93;;
35522;SDS011;61478;50.820;4.330;2023-04-25T01:17:26;31.90;;;8.05;;
35522;SDS011;61478;50.820;4.330;2023-04-25T01:19:53;22.05;;;5.85;;
35522;SDS011;61478;50.820;4.330;2023-04-25T01:22:19;24.75;;;6.95;;
35522;SDS011;61478;50.820;4.330;2023-04-25T01:24:46;26.50;;;7.10;;
35522;SDS011;61478;50.820;4.330;2023-04-25T01:27:12;30.98;;;7.50;;
35522;SDS011;61478;50.820;4.330;2023-04-25T01:29:39;27.35;;;7.53;;
35522;SDS011;61478;50.820;4.330;2023-04-25T01:32:07;35.28;;;8.38;;
35522;SDS011;61478;50.820;4.330;2023-04-25T01:34:38;24.70;;;6.72;;
35522;SDS011;61478;50.820;4.330;2023-04-25T01:37:04;25.02;;;6.97;;
35522;SDS011;61478;50.820;4.330;2023-04-25T01:39:29;23.23;;;6.20;;
35522;SDS011;61478;50.820;4.330;2023-04-25T01:41:55;24.05;;;6.97;;
35522;SDS011;61478;50.820;4.330;2023-04-25T01:44:22;26.30;;;7.15;;
35522;SDS011;61478;50.820;4.330;2023-04-25T01:46:48;25.10;;;7.70;;
35522;SDS011;61478;50.820;4.330;2023-04-25T01:49:14;24.63;;;6.55;;
35522;SDS011;61478;50.820;4.330;2023-04-25T01:51:40;24.05;;;7.32;;
35522;SDS011;61478;50.820;4.330;2023-04-25T01:54:06;26.90;;;7.07;;
35522;SDS011;61478;50.820;4.330;2023-04-25T01:56:36;22.25;;;6.88;;
35522;SDS011;61478;50.820;4.330;2023-04-25T01:59:03;22.45;;;6.60;;
35522;SDS011;61478;50.820;4.330;2023-04-25T02:01:30;27.92;;;6.75;;
35522;SDS011;61478;50.820;4.330;2023-04-25T02:03:57;27.35;;;7.15;;
35522;SDS011;61478;50.820;4.330;2023-04-25T02:06:23;27.85;;;7.90;;
35522;SDS011;61478;50.820;4.330;2023-04-25T02:08:52;30.50;;;7.03;;
35522;SDS011;61478;50.820;4.330;2023-04-25T02:11:18;30.88;;;8.15;;
35522;SDS011;61478;50.820;4.330;2023-04-25T02:13:44;28.08;;;7.07;;
35522;SDS011;61478;50.820;4.330;2023-04-25T02:16:10;26.25;;;6.75;;
35522;SDS011;61478;50.820;4.330;2023-04-25T02:18:36;27.10;;;7.57;;
35522;SDS011;61478;50.820;4.330;2023-04-25T02:21:02;23.92;;;6.95;;
35522;SDS011;61478;50.820;4.330;2023-04-25T02:23:29;24.98;;;7.13;;
35522;SDS011;61478;50.820;4.330;2023-04-25T02:25:55;28.60;;;7.55;;
35522;SDS011;61478;50.820;4.330;2023-04-25T02:28:23;25.42;;;6.63;;
35522;SDS011;61478;50.820;4.330;2023-04-25T02:30:51;20.10;;;6.70;;
35522;SDS011;61478;50.820;4.330;2023-04-25T02:33:17;29.08;;;7.95;;
35522;SDS011;61478;50.820;4.330;2023-04-25T02:35:43;28.65;;;6.68;;
35522;SDS011;61478;50.820;4.330;2023-04-25T02:38:09;25.23;;;6.68;;
35522;SDS011;61478;50.820;4.330;2023-04-25T02:40:35;27.63;;;7.80;;
35522;SDS011;61478;50.820;4.330;2023-04-25T02:43:01;31.00;;;7.63;;
35522;SDS011;61478;50.820;4.330;2023-04-25T02:45:27;24.60;;;7.28;;
35522;SDS011;61478;50.820;4.330;2023-04-25T02:47:53;27.73;;;7.38;;
35522;SDS011;61478;50.820;4.330;2023-04-25T02:50:19;24.27;;;6.50;;
35522;SDS011;61478;50.820;4.330;2023-04-25T02:52:45;24.65;;;7.28;;
35522;SDS011;61478;50.820;4.330;2023-04-25T02:55:12;25.70;;;7.32;;
35522;SDS011;61478;50.820;4.330;2023-04-25T02:57:38;22.52;;;7.13;;
35522;SDS011;61478;50.820;4.330;2023-04-25T03:00:05;26.83;;;7.65;;
35522;SDS011;61478;50.820;4.330;2023-04-25T03:02:32;25.65;;;7.45;;
35522;SDS011;61478;50.820;4.330;2023-04-25T03:04:58;33.42;;;7.53;;
35522;SDS011;61478;50.820;4.330;2023-04-25T03:07:24;25.75;;;7.78;;
35522;SDS011;61478;50.820;4.330;2023-04-25T03:09:50;21.63;;;6.93;;
35522;SDS011;61478;50.820;4.330;2023-04-25T03:12:16;23.98;;;7.25;;
35522;SDS011;61478;50.820;4.330;2023-04-25T03:14:42;22.02;;;6.57;;
35522;SDS011;61478;50.820;4.330;2023-04-25T03:17:08;26.17;;;7.38;;
35522;SDS011;61478;50.820;4.330;2023-04-25T03:19:34;31.27;;;7.95;;
35522;SDS011;61478;50.820;4.330;2023-04-25T03:22:00;32.65;;;7.95;;
35522;SDS011;61478;50.820;4.330;2023-04-25T03:24:26;19.10;;;6.78;;
35522;SDS011;61478;50.820;4.330;2023-04-25T03:26:52;19.27;;;6.25;;
35522;SDS011;61478;50.820;4.330;2023-04-25T03:29:18;25.80;;;6.95;;
35522;SDS011;61478;50.820;4.330;2023-04-25T03:31:49;27.60;;;7.53;;
35522;SDS011;61478;50.820;4.330;2023-04-25T03:34:15;23.70;;;7.53;;
35522;SDS011;61478;50.820;4.330;2023-04-25T03:36:41;31.13;;;8.32;;
35522;SDS011;61478;50.820;4.330;2023-04-25T03:39:08;26.52;;;7.75;;
35522;SDS011;61478;50.820;4.330;2023-04-25T03:41:34;29.20;;;7.47;;
35522;SDS011;61478;50.820;4.330;2023-04-25T03:44:00;27.15;;;7.50;;
35522;SDS011;61478;50.820;4.330;2023-04-25T03:46:26;28.38;;;7.13;;
35522;SDS011;61478;50.820;4.330;2023-04-25T03:48:52;24.15;;;6.80;;
35522;SDS011;61478;50.820;4.330;2023-04-25T03:51:18;26.73;;;7.30;;
35522;SDS011;61478;50.820;4.330;2023-04-25T03:53:47;27.42;;;6.88;;
35522;SDS011;61478;50.820;4.330;2023-04-25T03:56:13;30.30;;;7.30;;
35522;SDS011;61478;50.820;4.330;2023-04-25T03:58:39;30.17;;;6.80;;
35522;SDS011;61478;50.820;4.330;2023-04-25T04:01:06;30.23;;;7.57;;
35522;SDS011;61478;50.820;4.330;2023-04-25T04:03:34;28.33;;;7.00;;
35522;SDS011;61478;50.820;4.330;2023-04-25T04:06:04;29.02;;;7.95;;
35522;SDS011;61478;50.820;4.330;2023-04-25T04:08:31;23.85;;;6.75;;
35522;SDS011;61478;50.820;4.330;2023-04-25T04:10:57;25.85;;;6.05;;
35522;SDS011;61478;50.820;4.330;2023-04-25T04:13:25;27.45;;;6.65;;
35522;SDS011;61478;50.820;4.330;2023-04-25T04:15:51;19.88;;;5.82;;
35522;SDS011;61478;50.820;4.330;2023-04-25T04:18:17;25.70;;;6.72;;
35522;SDS011;61478;50.820;4.330;2023-04-25T04:20:43;29.45;;;6.72;;
35522;SDS011;61478;50.820;4.330;2023-04-25T04:23:10;23.05;;;5.75;;
35522;SDS011;61478;50.820;4.330;2023-04-25T04:25:37;24.05;;;6.18;;
35522;SDS011;61478;50.820;4.330;2023-04-25T04:28:04;26.80;;;6.35;;
35522;SDS011;61478;50.820;4.330;2023-04-25T04:30:31;23.48;;;6.28;;
35522;SDS011;61478;50.820;4.330;2023-04-25T04:32:58;25.13;;;7.75;;
35522;SDS011;61478;50.820;4.330;2023-04-25T04:35:26;27.25;;;6.72;;
35522;SDS011;61478;50.820;4.330;2023-04-25T04:37:52;22.52;;;7.22;;
35522;SDS011;61478;50.820;4.330;2023-04-25T04:40:19;21.58;;;6.00;;
35522;SDS011;61478;50.820;4.330;2023-04-25T04:42:48;18.02;;;5.80;;
35522;SDS011;61478;50.820;4.330;2023-04-25T04:45:14;21.17;;;5.47;;
35522;SDS011;61478;50.820;4.330;2023-04-25T04:47:41;21.90;;;5.70;;
35522;SDS011;61478;50.820;4.330;2023-04-25T04:50:08;26.25;;;6.00;;
35522;SDS011;61478;50.820;4.330;2023-04-25T04:52:35;23.98;;;6.20;;
35522;SDS011;61478;50.820;4.330;2023-04-25T04:55:03;29.40;;;7.55;;
35522;SDS011;61478;50.820;4.330;2023-04-25T04:57:30;25.88;;;7.10;;
35522;SDS011;61478;50.820;4.330;2023-04-25T04:59:58;22.20;;;6.32;;
35522;SDS011;61478;50.820;4.330;2023-04-25T05:02:24;24.15;;;6.82;;
35522;SDS011;61478;50.820;4.330;2023-04-25T05:04:51;20.58;;;6.55;;
35522;SDS011;61478;50.820;4.330;2023-04-25T05:07:20;29.48;;;7.57;;
35522;SDS011;61478;50.820;4.330;2023-04-25T05:09:50;23.67;;;7.45;;
35522;SDS011;61478;50.820;4.330;2023-04-25T05:12:18;25.13;;;7.25;;
35522;SDS011;61478;50.820;4.330;2023-04-25T05:14:45;21.75;;;7.03;;
35522;SDS011;61478;50.820;4.330;2023-04-25T05:17:11;22.90;;;7.10;;
35522;SDS011;61478;50.820;4.330;2023-04-25T05:19:37;23.67;;;6.35;;
35522;SDS011;61478;50.820;4.330;2023-04-25T05:22:04;23.13;;;7.05;;
35522;SDS011;61478;50.820;4.330;2023-04-25T05:24:30;21.73;;;6.00;;
35522;SDS011;61478;50.820;4.330;2023-04-25T05:26:56;24.77;;;7.05;;
35522;SDS011;61478;50.820;4.330;2023-04-25T05:29:22;22.15;;;5.95;;
35522;SDS011;61478;50.820;4.330;2023-04-25T05:31:49;18.48;;;6.00;;
35522;SDS011;61478;50.820;4.330;2023-04-25T05:34:15;26.75;;;7.68;;
35522;SDS011;61478;50.820;4.330;2023-04-25T05:36:42;22.33;;;8.15;;
35522;SDS011;61478;50.820;4.330;2023-04-25T05:39:08;24.52;;;7.53;;
35522;SDS011;61478;50.820;4.330;2023-04-25T05:41:34;19.33;;;8.05;;
35522;SDS011;61478;50.820;4.330;2023-04-25T05:44:00;28.77;;;8.00;;
35522;SDS011;61478;50.820;4.330;2023-04-25T05:46:26;21.35;;;7.90;;
35522;SDS011;61478;50.820;4.330;2023-04-25T05:48:52;24.98;;;8.15;;
35522;SDS011;61478;50.820;4.330;2023-04-25T05:51:21;26.95;;;8.05;;
35522;SDS011;61478;50.820;4.330;2023-04-25T05:53:47;25.08;;;7.40;;
35522;SDS011;61478;50.820;4.330;2023-04-25T05:56:13;25.98;;;7.45;;
35522;SDS011;61478;50.820;4.330;2023-04-25T05:58:40;29.60;;;7.70;;
35522;SDS011;61478;50.820;4.330;2023-04-25T06:01:06;25.02;;;8.35;;
35522;SDS011;61478;50.820;4.330;2023-04-25T06:03:32;26.70;;;8.40;;
35522;SDS011;61478;50.820;4.330;2023-04-25T06:05:58;19.77;;;7.82;;
35522;SDS011;61478;50.820;4.330;2023-04-25T06:08:24;23.48;;;9.27;;
35522;SDS011;61478;50.820;4.330;2023-04-25T06:10:50;22.52;;;8.48;;
35522;SDS011;61478;50.820;4.330;2023-04-25T06:13:16;24.20;;;7.85;;
35522;SDS011;61478;50.820;4.330;2023-04-25T06:15:42;24.23;;;7.40;;
35522;SDS011;61478;50.820;4.330;2023-04-25T06:18:08;29.63;;;8.20;;
35522;SDS011;61478;50.820;4.330;2023-04-25T06:20:34;22.08;;;7.18;;
35522;SDS011;61478;50.820;4.330;2023-04-25T06:23:00;23.58;;;7.90;;
35522;SDS011;61478;50.820;4.330;2023-04-25T06:25:25;26.85;;;7.63;;
35522;SDS011;61478;50.820;4.330;2023-04-25T06:27:51;24.30;;;7.05;;
35522;SDS011;61478;50.820;4.330;2023-04-25T06:30:17;22.98;;;6.85;;
35522;SDS011;61478;50.820;4.330;2023-04-25T06:32:47;26.40;;;7.10;;
35522;SDS011;61478;50.820;4.330;2023-04-25T06:35:13;22.00;;;6.80;;
35522;SDS011;61478;50.820;4.330;2023-04-25T06:37:39;32.13;;;7.38;;
35522;SDS011;61478;50.820;4.330;2023-04-25T06:40:05;22.75;;;6.35;;
35522;SDS011;61478;50.820;4.330;2023-04-25T06:42:32;22.20;;;6.05;;
35522;SDS011;61478;50.820;4.330;2023-04-25T06:44:58;25.63;;;6.40;;
35522;SDS011;61478;50.820;4.330;2023-04-25T06:47:24;21.00;;;5.20;;
35522;SDS011;61478;50.820;4.330;2023-04-25T06:49:50;23.02;;;5.78;;
35522;SDS011;61478;50.820;4.330;2023-04-25T06:52:16;22.85;;;5.85;;
35522;SDS011;61478;50.820;4.330;2023-04-25T06:54:43;29.83;;;5.40;;
35522;SDS011;61478;50.820;4.330;2023-04-25T06:57:09;30.45;;;6.45;;
35522;SDS011;61478;50.820;4.330;2023-04-25T06:59:35;22.70;;;5.13;;
35522;SDS011;61478;50.820;4.330;2023-04-25T07:02:01;28.83;;;6.50;;
35522;SDS011;61478;50.820;4.330;2023-04-25T07:04:28;21.15;;;5.85;;
35522;SDS011;61478;50.820;4.330;2023-04-25T07:06:55;34.17;;;7.38;;
35522;SDS011;61478;50.820;4.330;2023-04-25T07:09:21;37.60;;;6.85;;
35522;SDS011;61478;50.820;4.330;2023-04-25T07:11:47;27.15;;;5.50;;
35522;SDS011;61478;50.820;4.330;2023-04-25T07:14:13;29.45;;;6.25;;
35522;SDS011;61478;50.820;4.330;2023-04-25T07:16:40;17.88;;;5.68;;
35522;SDS011;61478;50.820;4.330;2023-04-25T07:19:07;25.38;;;5.45;;
35522;SDS011;61478;50.820;4.330;2023-04-25T07:21:32;25.33;;;5.82;;
35522;SDS011;61478;50.820;4.330;2023-04-25T07:23:59;20.90;;;4.57;;
35522;SDS011;61478;50.820;4.330;2023-04-25T07:26:25;28.88;;;5.78;;
35522;SDS011;61478;50.820;4.330;2023-04-25T07:28:51;29.30;;;5.90;;
35522;SDS011;61478;50.820;4.330;2023-04-25T07:31:17;35.65;;;7.15;;
35522;SDS011;61478;50.820;4.330;2023-04-25T07:33:44;33.10;;;6.05;;
35522;SDS011;61478;50.820;4.330;2023-04-25T07:36:10;19.92;;;4.60;;
35522;SDS011;61478;50.820;4.330;2023-04-25T07:38:37;21.42;;;5.07;;
35522;SDS011;61478;50.820;4.330;2023-04-25T07:41:04;21.63;;;5.70;;
35522;SDS011;61478;50.820;4.330;2023-04-25T07:43:30;14.88;;;4.80;;
35522;SDS011;61478;50.820;4.330;2023-04-25T07:45:55;18.10;;;4.03;;
35522;SDS011;61478;50.820;4.330;2023-04-25T07:48:22;17.27;;;5.05;;
35522;SDS011;61478;50.820;4.330;2023-04-25T07:50:48;19.40;;;4.70;;
35522;SDS011;61478;50.820;4.330;2023-04-25T07:53:14;16.63;;;4.72;;
35522;SDS011;61478;50.820;4.330;2023-04-25T07:55:40;20.98;;;5.00;;
35522;SDS011;61478;50.820;4.330;2023-04-25T07:58:06;23.05;;;4.55;;
35522;SDS011;61478;50.820;4.330;2023-04-25T08:00:32;23.50;;;4.53;;
35522;SDS011;61478;50.820;4.330;2023-04-25T08:02:58;17.13;;;4.43;;
35522;SDS011;61478;50.820;4.330;2023-04-25T08:07:58;17.67;;;4.85;;
35522;SDS011;61478;50.820;4.330;2023-04-25T08:10:24;19.98;;;4.95;;
35522;SDS011;61478;50.820;4.330;2023-04-25T08:12:50;26.85;;;4.95;;
35522;SDS011;61478;50.820;4.330;2023-04-25T08:15:17;20.85;;;4.78;;
35522;SDS011;61478;50.820;4.330;2023-04-25T08:17:43;18.48;;;4.25;;
35522;SDS011;61478;50.820;4.330;2023-04-25T08:20:09;23.35;;;5.45;;
35522;SDS011;61478;50.820;4.330;2023-04-25T08:22:38;15.18;;;4.22;;
35522;SDS011;61478;50.820;4.330;2023-04-25T08:25:05;19.17;;;4.40;;
35522;SDS011;61478;50.820;4.330;2023-04-25T08:27:31;13.68;;;3.70;;
35522;SDS011;61478;50.820;4.330;2023-04-25T08:29:57;18.40;;;4.20;;
35522;SDS011;61478;50.820;4.330;2023-04-25T08:32:23;19.15;;;4.43;;
35522;SDS011;61478;50.820;4.330;2023-04-25T08:34:50;22.40;;;5.53;;
35522;SDS011;61478;50.820;4.330;2023-04-25T08:37:19;19.45;;;3.95;;
35522;SDS011;61478;50.820;4.330;2023-04-25T08:39:45;14.40;;;3.78;;
35522;SDS011;61478;50.820;4.330;2023-04-25T08:42:14;19.23;;;3.85;;
35522;SDS011;61478;50.820;4.330;2023-04-25T08:44:41;15.95;;;3.80;;
35522;SDS011;61478;50.820;4.330;2023-04-25T08:47:10;20.67;;;4.47;;
35522;SDS011;61478;50.820;4.330;2023-04-25T08:49:36;14.32;;;3.47;;
35522;SDS011;61478;50.820;4.330;2023-04-25T08:52:05;15.48;;;3.78;;
35522;SDS011;61478;50.820;4.330;2023-04-25T08:54:31;19.85;;;6.03;;
35522;SDS011;61478;50.820;4.330;2023-04-25T08:57:00;19.73;;;3.83;;
35522;SDS011;61478;50.820;4.330;2023-04-25T08:59:30;14.63;;;3.22;;
35522;SDS011;61478;50.820;4.330;2023-04-25T09:01:57;8.00;;;3.15;;
35522;SDS011;61478;50.820;4.330;2023-04-25T09:04:23;12.48;;;2.85;;
35522;SDS011;61478;50.820;4.330;2023-04-25T09:06:50;11.60;;;3.33;;
35522;SDS011;61478;50.820;4.330;2023-04-25T09:09:15;13.63;;;3.38;;
35522;SDS011;61478;50.820;4.330;2023-04-25T09:11:41;19.88;;;3.78;;
35522;SDS011;61478;50.820;4.330;2023-04-25T09:14:11;13.32;;;3.42;;
35522;SDS011;61478;50.820;4.330;2023-04-25T09:19:27;11.95;;;3.45;;
35522;SDS011;61478;50.820;4.330;2023-04-25T09:21:58;9.90;;;3.67;;
35522;SDS011;61478;50.820;4.330;2023-04-25T09:24:44;14.65;;;3.47;;
35522;SDS011;61478;50.820;4.330;2023-04-25T09:27:19;7.93;;;2.85;;
35522;SDS011;61478;50.820;4.330;2023-04-25T09:29:48;12.07;;;3.10;;
35522;SDS011;61478;50.820;4.330;2023-04-25T09:32:21;14.38;;;3.20;;
35522;SDS011;61478;50.820;4.330;2023-04-25T09:34:53;13.98;;;3.50;;
35522;SDS011;61478;50.820;4.330;2023-04-25T09:37:21;20.10;;;3.47;;
35522;SDS011;61478;50.820;4.330;2023-04-25T09:39:54;12.25;;;3.15;;
35522;SDS011;61478;50.820;4.330;2023-04-25T09:42:22;16.73;;;3.10;;
35522;SDS011;61478;50.820;4.330;2023-04-25T09:44:51;14.68;;;3.42;;
35522;SDS011;61478;50.820;4.330;2023-04-25T09:47:18;16.83;;;3.17;;
35522;SDS011;61478;50.820;4.330;2023-04-25T09:49:46;14.55;;;3.15;;
35522;SDS011;61478;50.820;4.330;2023-04-25T09:52:14;15.63;;;3.15;;
35522;SDS011;61478;50.820;4.330;2023-04-25T09:54:45;22.83;;;4.10;;
35522;SDS011;61478;50.820;4.330;2023-04-25T09:57:12;20.25;;;3.60;;
35522;SDS011;61478;50.820;4.330;2023-04-25T09:59:46;8.32;;;2.88;;
35522;SDS011;61478;50.820;4.330;2023-04-25T10:02:14;10.13;;;3.00;;
35522;SDS011;61478;50.820;4.330;2023-04-25T10:04:41;11.50;;;3.15;;
35522;SDS011;61478;50.820;4.330;2023-04-25T10:07:10;12.63;;;3.10;;
35522;SDS011;61478;50.820;4.330;2023-04-25T10:09:37;8.73;;;2.60;;
35522;SDS011;61478;50.820;4.330;2023-04-25T10:12:05;9.02;;;2.50;;
35522;SDS011;61478;50.820;4.330;2023-04-25T10:14:33;10.35;;;2.83;;
35522;SDS011;61478;50.820;4.330;2023-04-25T10:16:59;11.05;;;2.75;;
35522;SDS011;61478;50.820;4.330;2023-04-25T10:19:26;9.50;;;2.10;;
35522;SDS011;61478;50.820;4.330;2023-04-25T10:24:34;7.70;;;2.35;;
35522;SDS011;61478;50.820;4.330;2023-04-25T10:27:02;5.15;;;1.85;;
35522;SDS011;61478;50.820;4.330;2023-04-25T10:29:28;3.97;;;1.35;;
35522;SDS011;61478;50.820;4.330;2023-04-25T10:31:54;5.30;;;1.70;;
35522;SDS011;61478;50.820;4.330;2023-04-25T10:34:23;4.95;;;1.63;;
35522;SDS011;61478;50.820;4.330;2023-04-25T10:37:02;4.20;;;1.33;;
35522;SDS011;61478;50.820;4.330;2023-04-25T10:39:28;11.45;;;2.47;;
35522;SDS011;61478;50.820;4.330;2023-04-25T10:41:58;5.50;;;1.42;;
35522;SDS011;61478;50.820;4.330;2023-04-25T10:44:28;6.78;;;1.55;;
35522;SDS011;61478;50.820;4.330;2023-04-25T10:46:55;5.68;;;1.50;;
35522;SDS011;61478;50.820;4.330;2023-04-25T10:49:35;5.32;;;1.90;;
35522;SDS011;61478;50.820;4.330;2023-04-25T10:54:55;8.90;;;1.95;;
35522;SDS011;61478;50.820;4.330;2023-04-25T11:00:09;10.20;;;2.30;;
35522;SDS011;61478;50.820;4.330;2023-04-25T11:02:44;8.98;;;2.28;;
35522;SDS011;61478;50.820;4.330;2023-04-25T11:05:11;13.05;;;2.80;;
35522;SDS011;61478;50.820;4.330;2023-04-25T11:07:56;12.40;;;2.53;;
35522;SDS011;61478;50.820;4.330;2023-04-25T11:10:27;11.82;;;2.42;;
35522;SDS011;61478;50.820;4.330;2023-04-25T11:12:58;13.80;;;3.30;;
35522;SDS011;61478;50.820;4.330;2023-04-25T11:15:25;14.15;;;3.20;;
35522;SDS011;61478;50.820;4.330;2023-04-25T11:17:51;8.05;;;2.25;;
35522;SDS011;61478;50.820;4.330;2023-04-25T11:20:17;14.68;;;2.90;;
35522;SDS011;61478;50.820;4.330;2023-04-25T11:22:44;14.57;;;3.50;;
35522;SDS011;61478;50.820;4.330;2023-04-25T11:25:12;12.15;;;3.20;;
35522;SDS011;61478;50.820;4.330;2023-04-25T11:30:18;12.68;;;3.08;;
35522;SDS011;61478;50.820;4.330;2023-04-25T11:32:44;15.23;;;2.78;;
35522;SDS011;61478;50.820;4.330;2023-04-25T11:35:10;8.10;;;2.40;;
35522;SDS011;61478;50.820;4.330;2023-04-25T11:37:38;11.98;;;2.55;;
35522;SDS011;61478;50.820;4.330;2023-04-25T11:40:05;12.82;;;2.33;;
35522;SDS011;61478;50.820;4.330;2023-04-25T11:42:32;10.20;;;2.30;;
35522;SDS011;61478;50.820;4.330;2023-04-25T11:44:59;9.63;;;2.47;;
35522;SDS011;61478;50.820;4.330;2023-04-25T11:47:29;7.63;;;2.10;;
35522;SDS011;61478;50.820;4.330;2023-04-25T11:49:57;9.68;;;2.63;;
35522;SDS011;61478;50.820;4.330;2023-04-25T11:52:37;6.78;;;2.60;;
35522;SDS011;61478;50.820;4.330;2023-04-25T11:55:14;8.60;;;2.83;;
35522;SDS011;61478;50.820;4.330;2023-04-25T11:57:45;11.07;;;3.00;;
35522;SDS011;61478;50.820;4.330;2023-04-25T12:00:17;11.45;;;2.58;;
35522;SDS011;61478;50.820;4.330;2023-04-25T12:02:46;10.00;;;2.25;;
35522;SDS011;61478;50.820;4.330;2023-04-25T12:05:16;7.13;;;2.00;;
35522;SDS011;61478;50.820;4.330;2023-04-25T12:07:42;5.55;;;2.20;;
35522;SDS011;61478;50.820;4.330;2023-04-25T12:10:08;7.68;;;2.10;;
35522;SDS011;61478;50.820;4.330;2023-04-25T12:12:36;7.32;;;1.92;;
35522;SDS011;61478;50.820;4.330;2023-04-25T12:15:16;5.40;;;2.30;;
35522;SDS011;61478;50.820;4.330;2023-04-25T12:17:49;9.40;;;2.85;;
35522;SDS011;61478;50.820;4.330;2023-04-25T12:20:20;7.43;;;2.05;;
35522;SDS011;61478;50.820;4.330;2023-04-25T12:22:49;8.85;;;2.78;;
35522;SDS011;61478;50.820;4.330;2023-04-25T12:31:00;7.28;;;2.30;;
35522;SDS011;61478;50.820;4.330;2023-04-25T12:33:26;7.80;;;2.25;;
35522;SDS011;61478;50.820;4.330;2023-04-25T12:35:54;10.40;;;2.55;;
35522;SDS011;61478;50.820;4.330;2023-04-25T12:38:20;11.98;;;2.95;;
35522;SDS011;61478;50.820;4.330;2023-04-25T12:40:52;10.35;;;3.00;;
35522;SDS011;61478;50.820;4.330;2023-04-25T12:43:19;7.28;;;4.05;;
35522;SDS011;61478;50.820;4.330;2023-04-25T12:45:47;5.47;;;2.28;;
35522;SDS011;61478;50.820;4.330;2023-04-25T12:48:17;10.52;;;2.08;;
35522;SDS011;61478;50.820;4.330;2023-04-25T12:50:43;4.97;;;1.77;;
35522;SDS011;61478;50.820;4.330;2023-04-25T12:53:10;5.70;;;2.20;;
35522;SDS011;61478;50.820;4.330;2023-04-25T12:55:36;6.15;;;2.00;;
35522;SDS011;61478;50.820;4.330;2023-04-25T12:58:02;4.50;;;2.05;;
35522;SDS011;61478;50.820;4.330;2023-04-25T13:00:29;5.45;;;1.75;;
35522;SDS011;61478;50.820;4.330;2023-04-25T13:02:55;7.05;;;2.05;;
35522;SDS011;61478;50.820;4.330;2023-04-25T13:05:21;8.77;;;2.65;;
35522;SDS011;61478;50.820;4.330;2023-04-25T13:07:48;9.63;;;2.13;;
35522;SDS011;61478;50.820;4.330;2023-04-25T13:10:14;7.10;;;1.92;;
35522;SDS011;61478;50.820;4.330;2023-04-25T13:12:40;7.28;;;2.03;;
35522;SDS011;61478;50.820;4.330;2023-04-25T13:15:07;10.95;;;2.10;;
35522;SDS011;61478;50.820;4.330;2023-04-25T13:17:34;5.95;;;1.88;;
35522;SDS011;61478;50.820;4.330;2023-04-25T13:20:00;8.60;;;2.17;;
35522;SDS011;61478;50.820;4.330;2023-04-25T13:22:26;8.02;;;2.03;;
35522;SDS011;61478;50.820;4.330;2023-04-25T13:24:51;11.48;;;2.38;;
35522;SDS011;61478;50.820;4.330;2023-04-25T13:27:17;9.27;;;2.30;;
35522;SDS011;61478;50.820;4.330;2023-04-25T13:29:43;12.02;;;2.72;;
35522;SDS011;61478;50.820;4.330;2023-04-25T13:32:10;10.85;;;2.40;;
35522;SDS011;61478;50.820;4.330;2023-04-25T13:34:39;6.97;;;1.88;;
35522;SDS011;61478;50.820;4.330;2023-04-25T13:37:05;7.20;;;1.80;;
35522;SDS011;61478;50.820;4.330;2023-04-25T13:39:31;8.23;;;1.95;;
35522;SDS011;61478;50.820;4.330;2023-04-25T13:42:00;8.90;;;2.08;;
35522;SDS011;61478;50.820;4.330;2023-04-25T13:44:27;7.30;;;2.05;;
35522;SDS011;61478;50.820;4.330;2023-04-25T13:46:53;11.43;;;2.33;;
35522;SDS011;61478;50.820;4.330;2023-04-25T13:49:19;5.25;;;1.80;;
35522;SDS011;61478;50.820;4.330;2023-04-25T13:51:45;10.27;;;1.88;;
35522;SDS011;61478;50.820;4.330;2023-04-25T13:54:11;9.75;;;2.58;;
35522;SDS011;61478;50.820;4.330;2023-04-25T13:56:37;5.05;;;2.00;;
35522;SDS011;61478;50.820;4.330;2023-04-25T13:59:06;10.65;;;2.30;;
35522;SDS011;61478;50.820;4.330;2023-04-25T14:01:32;6.78;;;1.85;;
35522;SDS011;61478;50.820;4.330;2023-04-25T14:04:00;6.03;;;2.05;;
35522;SDS011;61478;50.820;4.330;2023-04-25T14:06:28;5.55;;;1.88;;
35522;SDS011;61478;50.820;4.330;2023-04-25T14:08:55;7.03;;;1.55;;
35522;SDS011;61478;50.820;4.330;2023-04-25T14:11:21;8.10;;;2.80;;
35522;SDS011;61478;50.820;4.330;2023-04-25T14:13:47;7.70;;;4.30;;
35522;SDS011;61478;50.820;4.330;2023-04-25T14:16:14;12.02;;;2.30;;
35522;SDS011;61478;50.820;4.330;2023-04-25T14:18:41;7.35;;;1.98;;
35522;SDS011;61478;50.820;4.330;2023-04-25T14:21:09;8.35;;;1.90;;
35522;SDS011;61478;50.820;4.330;2023-04-25T14:23:35;6.80;;;1.98;;
35522;SDS011;61478;50.820;4.330;2023-04-25T14:26:01;10.35;;;2.15;;
35522;SDS011;61478;50.820;4.330;2023-04-25T14:28:28;11.00;;;2.03;;
35522;SDS011;61478;50.820;4.330;2023-04-25T14:30:54;9.40;;;2.13;;
35522;SDS011;61478;50.820;4.330;2023-04-25T14:33:20;11.43;;;2.60;;
35522;SDS011;61478;50.820;4.330;2023-04-25T14:35:46;12.23;;;2.85;;
35522;SDS011;61478;50.820;4.330;2023-04-25T14:38:12;7.22;;;1.92;;
35522;SDS011;61478;50.820;4.330;2023-04-25T14:40:38;9.07;;;2.45;;
35522;SDS011;61478;50.820;4.330;2023-04-25T14:43:04;11.07;;;2.15;;
35522;SDS011;61478;50.820;4.330;2023-04-25T14:45:31;12.13;;;2.58;;
35522;SDS011;61478;50.820;4.330;2023-04-25T14:47:57;12.85;;;2.13;;
35522;SDS011;61478;50.820;4.330;2023-04-25T14:50:22;8.27;;;2.45;;
35522;SDS011;61478;50.820;4.330;2023-04-25T14:52:48;10.23;;;2.65;;
35522;SDS011;61478;50.820;4.330;2023-04-25T14:55:14;7.30;;;2.58;;
35522;SDS011;61478;50.820;4.330;2023-04-25T14:57:40;6.18;;;1.80;;
35522;SDS011;61478;50.820;4.330;2023-04-25T15:00:06;6.45;;;1.80;;